Sac City, IA (50583)

4:22 AM CDT on October 01, 2016 (GMT -0500)
Odebolt Methodist Church | | Change Station

Elev 1381 ft 42.31 °N, 95.25 °W | Updated 6 seconds ago

Overcast
Overcast
56.9 °F
Feels Like 56.9 °F
N
0.0
Wind Variable Wind from SSW
Gusts 0.0 mph

Today
High -- | Low -- °F
--% Chance of Precip.
Yesterday
High -- | Low -- °F
Precip. -- in
Pressure 30.16 in
Visibility 10.0 miles
Clouds Overcast 3400 ft
Dew Point 54 °F
Humidity 91%
Rainfall 0.00 in
Snow Depth Not available.
7:17 AM 7:00 PM
New Moon, 0% visible
METAR KSLB 010915Z AUTO 00000KT 10SM OVC034 15/13 A3016 RMK AO2
Pressure 30.16 in
Visibility 10.0 miles
Clouds Overcast 3400 ft
Dew Point 54 °F
Humidity 91%
Rainfall 0.00 in
Snow Depth Not available.
7:17 AM 7:00 PM
New Moon, 0% visible
METAR KSLB 010915Z AUTO 00000KT 10SM OVC034 15/13 A3016 RMK AO2

10-Day Weather Forecast

Almanac

Astronomy

Oct. 01, 2016 Rise Set
Actual Time
Civil Twilight
Nautical Twilight
Astronomical Twilight
Moon
Length of Visible Light
Length of Day
Tomorrow will be .
, % of the Moon is Illuminated

Today's Extremes

State Highs State Lows

Community

WunderPhotos

Upload Photos

1,942,898 photos uploaded!

WunderBlog® & News

Nearby

Air Quality

  Air Quality AQ Index Pollutant
Not available.

Snow Depth

Station Depth Elevation

Earthquake Activity

City Distance Mag. Time & Date
Minimum magnitude displayed is 2.5.

Coastal Water Temperatures

Place Temperature

Stations

Nearby Weather Stations

Station Location Temp. Windchill Dew Point Humidity Wind Precip. Elev Updated Type
                   

Watches & Warnings

There are currently no watches in effect.